createdAt,value
2019-03-06T00:02:21.421Z,23.2
2019-03-06T00:07:26.673Z,23.2
2019-03-06T00:12:31.629Z,23.1
2019-03-06T00:17:37.296Z,23.1
2019-03-06T00:22:42.336Z,23.1
2019-03-06T00:27:48.489Z,23.1
2019-03-06T00:32:53.854Z,23.1
2019-03-06T00:37:59.995Z,23.1
2019-03-06T00:43:05.749Z,23.1
2019-03-06T00:48:11.426Z,23.1
2019-03-06T00:53:17.264Z,23.1
2019-03-06T00:58:22.440Z,23.1
2019-03-06T01:03:30.260Z,23.1
2019-03-06T01:08:36.656Z,23.1
2019-03-06T01:13:42.049Z,23
2019-03-06T01:18:47.433Z,23
2019-03-06T01:23:53.171Z,23
2019-03-06T01:28:59.348Z,23
2019-03-06T01:34:05.160Z,23
2019-03-06T01:39:10.928Z,23
2019-03-06T01:44:15.912Z,23
2019-03-06T01:49:22.400Z,23
2019-03-06T01:54:28.040Z,23
2019-03-06T01:59:34.068Z,23
2019-03-06T02:04:39.384Z,23
2019-03-06T02:09:45.345Z,23
2019-03-06T02:14:50.758Z,22.9
2019-03-06T02:19:56.539Z,22.9
2019-03-06T02:25:02.387Z,22.9
2019-03-06T02:30:07.716Z,22.9
2019-03-06T02:35:13.052Z,22.9
2019-03-06T02:40:18.832Z,22.9
2019-03-06T02:45:24.512Z,22.9
2019-03-06T02:50:30.785Z,22.9
2019-03-06T02:55:36.433Z,22.9
2019-03-06T03:00:42.657Z,22.9
2019-03-06T03:05:48.050Z,22.9
2019-03-06T03:10:53.870Z,22.9
2019-03-06T03:15:59.474Z,22.9
2019-03-06T03:21:05.026Z,22.9
2019-03-06T03:26:10.622Z,22.9
2019-03-06T03:31:15.826Z,22.9
2019-03-06T03:36:20.892Z,22.9
2019-03-06T03:41:26.777Z,22.9
2019-03-06T03:46:31.882Z,22.9
2019-03-06T03:51:37.768Z,22.9
2019-03-06T03:56:42.876Z,22.8
2019-03-06T04:06:52.847Z,22.8
2019-03-06T04:11:58.930Z,22.8
2019-03-06T04:17:04.529Z,22.8
2019-03-06T04:22:10.428Z,22.8
2019-03-06T04:27:14.671Z,22.8
2019-03-06T04:32:19.814Z,22.8
2019-03-06T04:37:24.725Z,22.8
2019-03-06T04:42:30.544Z,22.8
2019-03-06T04:52:39.312Z,22.8
2019-03-06T04:57:45.353Z,22.9
2019-03-06T05:02:51.342Z,23
2019-03-06T05:07:56.843Z,23.1
2019-03-06T05:13:03.258Z,23.1
2019-03-06T05:18:08.748Z,23.1
2019-03-06T05:23:14.312Z,23.1
2019-03-06T05:28:19.525Z,23.2
2019-03-06T05:33:25.534Z,23.2
2019-03-06T05:38:30.705Z,23.2
2019-03-06T05:43:36.211Z,23.2
2019-03-06T05:53:46.739Z,23.3
2019-03-06T05:58:51.686Z,23.3
2019-03-06T06:03:56.854Z,23.3
2019-03-06T06:09:07.232Z,23.3
2019-03-06T06:14:13.005Z,23.3
2019-03-06T06:19:18.493Z,23.3
2019-03-06T06:24:23.601Z,23.3
2019-03-06T06:29:28.591Z,23.3
2019-03-06T06:34:33.844Z,23.4
2019-03-06T06:39:39.503Z,23.4
2019-03-06T06:44:45.942Z,23.4
2019-03-06T06:54:56.663Z,23.1
2019-03-06T07:00:02.401Z,23.1
2019-03-06T07:05:08.004Z,23.1
2019-03-06T07:10:13.075Z,23.1
2019-03-06T07:15:18.574Z,23
2019-03-06T07:20:24.356Z,23.1
2019-03-06T07:25:29.738Z,23.1
2019-03-06T07:30:34.970Z,23.1
2019-03-06T07:35:41.300Z,23.1
2019-03-06T07:40:47.437Z,23
2019-03-06T07:45:53.077Z,23.1
2019-03-06T07:50:58.719Z,23
2019-03-06T07:56:04.986Z,23
2019-03-06T08:01:21.162Z,23
2019-03-06T08:06:17.522Z,23
2019-03-06T08:11:22.548Z,23
2019-03-06T08:16:28.771Z,22.6
2019-03-06T08:21:34.680Z,22.7
2019-03-06T08:26:39.981Z,22.9
2019-03-06T08:36:50.299Z,23
2019-03-06T08:41:56.251Z,23.1
2019-03-06T08:47:02.440Z,23.1
2019-03-06T08:52:07.534Z,23.1
2019-03-06T08:57:13.272Z,23
2019-03-06T09:07:20.634Z,23
2019-03-06T09:12:27.908Z,23
2019-03-06T09:17:34.156Z,23
2019-03-06T09:22:38.207Z,23
2019-03-06T09:27:43.858Z,23
2019-03-06T09:32:49.637Z,23
2019-03-06T09:37:55.096Z,22.9
2019-03-06T09:43:01.368Z,22.9
2019-03-06T09:48:06.794Z,22.9
2019-03-06T09:53:13.111Z,23.2
2019-03-06T09:58:18.606Z,23.1
2019-03-06T10:03:24.422Z,23.2
2019-03-06T10:08:29.639Z,23.3
2019-03-06T10:13:37.193Z,23.3
2019-03-06T10:18:38.009Z,23.3
2019-03-06T10:23:43.564Z,23.3
2019-03-06T10:28:49.975Z,23.3
2019-03-06T10:33:55.937Z,23.3
2019-03-06T10:39:01.818Z,23.3
2019-03-06T10:44:07.469Z,23.3
2019-03-06T10:49:12.792Z,23.3
2019-03-06T10:54:19.189Z,23.3
2019-03-06T10:59:25.104Z,23.3
2019-03-06T11:04:30.303Z,23.3
2019-03-06T11:14:41.240Z,23.4
2019-03-06T11:19:46.902Z,23.4
2019-03-06T11:24:53.213Z,23.4
2019-03-06T11:30:00.313Z,23.4
2019-03-06T11:35:06.173Z,23.4
2019-03-06T11:40:12.230Z,23.4
2019-03-06T11:45:17.368Z,23.4
2019-03-06T11:50:22.704Z,23.5
2019-03-06T11:55:28.423Z,23.6
2019-03-06T12:00:34.657Z,23.6
2019-03-06T12:05:40.997Z,23.5
2019-03-06T12:10:46.657Z,23.5
2019-03-06T12:15:52.326Z,23.5
2019-03-06T12:20:57.953Z,23.4
2019-03-06T12:26:03.922Z,23.4
2019-03-06T12:31:09.284Z,23.5
2019-03-06T12:36:15.104Z,23.5
2019-03-06T12:41:19.645Z,23.4
2019-03-06T12:46:26.367Z,23.5
2019-03-06T12:51:32.252Z,23.4
2019-03-06T12:56:37.462Z,23.5
2019-03-06T13:01:43.315Z,23.5
2019-03-06T13:06:48.716Z,23.5
2019-03-06T13:11:55.344Z,23.5
2019-03-06T13:17:01.215Z,23.5
2019-03-06T13:22:14.593Z,23.5
2019-03-06T13:27:12.220Z,23.5
2019-03-06T13:32:17.757Z,23.5
2019-03-06T13:37:23.591Z,23.5
2019-03-06T13:42:29.590Z,23.5
2019-03-06T13:47:34.692Z,23.5
2019-03-06T13:52:40.486Z,23.6
2019-03-06T13:57:47.206Z,23.6
2019-03-06T14:02:52.804Z,23.6
2019-03-06T14:07:58.887Z,23.6
2019-03-06T14:13:05.296Z,23.6
2019-03-06T14:18:10.485Z,23.6
2019-03-06T14:23:16.332Z,23.6
2019-03-06T14:28:22.125Z,23.6
2019-03-06T14:33:27.758Z,23.6
2019-03-06T14:38:33.541Z,23.6
2019-03-06T14:43:40.358Z,23.5
2019-03-06T14:48:46.603Z,23.5
2019-03-06T14:53:53.289Z,23.5
2019-03-06T14:58:59.066Z,23.5
2019-03-06T15:04:04.930Z,23.5
2019-03-06T15:09:10.096Z,23.5
2019-03-06T15:14:16.587Z,23.4
2019-03-06T15:19:22.382Z,23.4
2019-03-06T15:24:28.861Z,23.4
2019-03-06T15:29:34.768Z,23.4
2019-03-06T15:34:40.433Z,23.3
2019-03-06T15:39:50.579Z,23.2
2019-03-06T15:44:54.869Z,23.2
2019-03-06T15:50:01.018Z,23.3
2019-03-06T15:55:07.896Z,23.3
2019-03-06T16:00:13.417Z,23.2
2019-03-06T16:05:19.524Z,23.2
2019-03-06T16:10:25.188Z,23.2
2019-03-06T16:15:30.334Z,23.2
2019-03-06T16:20:40.145Z,23.3
2019-03-06T16:30:49.239Z,23.3
2019-03-06T16:35:55.093Z,23.4
2019-03-06T16:41:01.239Z,23.3
2019-03-06T16:46:06.269Z,23.3
2019-03-06T16:51:12.215Z,23.3
2019-03-06T16:56:18.703Z,23.2
2019-03-06T17:01:24.479Z,23.2
2019-03-06T17:06:34.158Z,23.3
2019-03-06T17:11:40.753Z,23.3
2019-03-06T17:16:47.381Z,23.3
2019-03-06T17:21:53.228Z,23.3
2019-03-06T17:26:59.902Z,23.3
2019-03-06T17:32:05.290Z,23.2
2019-03-06T17:37:11.585Z,23.2
2019-03-06T17:42:16.900Z,23.2
2019-03-06T17:47:23.200Z,23.2
2019-03-06T17:52:29.637Z,23.2
2019-03-06T17:57:35.548Z,23.2
2019-03-06T18:02:41.278Z,23.2
2019-03-06T18:12:51.161Z,23.2
2019-03-06T18:17:58.747Z,23.2
2019-03-06T18:23:03.806Z,23.2
2019-03-06T18:28:09.785Z,23.2
2019-03-06T18:33:15.034Z,23.2
2019-03-06T18:38:21.592Z,23.2
2019-03-06T18:43:26.771Z,23.2
2019-03-06T18:48:32.406Z,23.3
2019-03-06T18:53:37.985Z,23.2
2019-03-06T18:58:43.704Z,23.2
2019-03-06T19:03:49.158Z,23.2
2019-03-06T19:08:54.853Z,23.2
2019-03-06T19:14:00.997Z,22.6
2019-03-06T19:19:06.433Z,22.6
2019-03-06T19:24:11.737Z,21.8
2019-03-06T19:29:17.456Z,21.8
2019-03-06T19:34:23.341Z,22.1
2019-03-06T19:39:29.129Z,22.4
2019-03-06T19:44:34.759Z,22.6
2019-03-06T19:49:41.167Z,22.8
2019-03-06T19:54:46.479Z,22.8
2019-03-06T19:59:55.235Z,22.7
2019-03-06T20:05:01.846Z,22.7
2019-03-06T20:10:08.229Z,22.8
2019-03-06T20:15:13.910Z,22.8
2019-03-06T20:20:20.003Z,22.8
2019-03-06T20:25:25.743Z,22.9
2019-03-06T20:30:31.893Z,22.9
2019-03-06T20:35:37.045Z,23
2019-03-06T20:40:46.684Z,23.1
2019-03-06T20:45:53.168Z,23.2
2019-03-06T20:50:59.814Z,23.2
2019-03-06T20:56:05.368Z,23.2
2019-03-06T21:01:09.820Z,23.2
2019-03-06T21:06:15.645Z,23.2
